Bison, SD (57620)

1:06 AM MDT on August 26, 2016 (GMT -0600)
NonFedAWOS | | Change Station

Elev 2785 ft 45.52 °N, 102.46 °W | Updated 31 minutes ago

Clear
Clear
52 °F
Feels Like 52 °F
N
0
Wind Variable Wind from North
Gusts 0.0 mph

Today
High -- | Low -- °F
--% Chance of Precip.
Yesterday
High -- | Low -- °F
Precip. -- in
Pressure 30.18 in
Visibility 10.0 miles
Clouds Clear
Dew Point 43 °F
Humidity 71%
Rainfall in
Snow Depth Not available.
6:04 AM 7:37 PM
Last Quarter, 37% visible
METAR KHEI 260653Z AUTO 00000KT 10SM CLR 10/05 A3018 RMK AO2 SLP218 T01000050 402000067
Pressure 30.18 in
Visibility 10.0 miles
Clouds Clear
Dew Point 43 °F
Humidity 71%
Rainfall in
Snow Depth Not available.
6:04 AM 7:37 PM
Last Quarter, 37% visible
METAR KHEI 260653Z AUTO 00000KT 10SM CLR 10/05 A3018 RMK AO2 SLP218 T01000050 402000067

10-Day Weather Forecast

Almanac

Astronomy

Aug. 26, 2016 Rise Set
Actual Time
Civil Twilight
Nautical Twilight
Astronomical Twilight
Moon
Length of Visible Light
Length of Day
Tomorrow will be .
, % of the Moon is Illuminated

Today's Extremes

State Highs State Lows

Community

WunderPhotos

Upload Photos

1,935,063 photos uploaded!

WunderBlog® & News

Nearby

Air Quality

  Air Quality AQ Index Pollutant
Not available.

Snow Depth

Station Depth Elevation

Earthquake Activity

City Distance Mag. Time & Date
Minimum magnitude displayed is 2.5.

Coastal Water Temperatures

Place Temperature

Stations

Nearby Weather Stations

Station Location Temp. Windchill Dew Point Humidity Wind Precip. Elev Updated Type
                   

Watches & Warnings

There are currently no watches in effect.